sensor_id;sensor_type;location;lat;lon;timestamp;pressure;altitude;pressure_sealevel;temperature;humidity
4834;BME280;12895;51.064;7.028;2023-07-09T00:01:54;100941.38;;;23.16;57.74
4834;BME280;12895;51.064;7.028;2023-07-09T00:04:41;100943.31;;;23.21;56.46
4834;BME280;12895;51.064;7.028;2023-07-09T00:07:28;100940.66;;;23.23;56.62
4834;BME280;12895;51.064;7.028;2023-07-09T00:10:17;100941.38;;;23.16;57.10
4834;BME280;12895;51.064;7.028;2023-07-09T00:13:04;100934.25;;;23.15;56.93
4834;BME280;12895;51.064;7.028;2023-07-09T00:15:50;100937.84;;;23.23;57.09
4834;BME280;12895;51.064;7.028;2023-07-09T00:18:36;100948.19;;;23.21;56.81
4834;BME280;12895;51.064;7.028;2023-07-09T00:21:23;100938.38;;;23.14;57.42
4834;BME280;12895;51.064;7.028;2023-07-09T00:24:08;100934.84;;;23.21;56.84
4834;BME280;12895;51.064;7.028;2023-07-09T00:26:54;100939.88;;;23.15;56.52
4834;BME280;12895;51.064;7.028;2023-07-09T00:29:40;100931.59;;;23.17;56.18
4834;BME280;12895;51.064;7.028;2023-07-09T00:32:25;100927.84;;;23.15;56.04
4834;BME280;12895;51.064;7.028;2023-07-09T00:35:12;100944.41;;;23.18;55.15
4834;BME280;12895;51.064;7.028;2023-07-09T00:38:01;100930.28;;;23.18;56.04
4834;BME280;12895;51.064;7.028;2023-07-09T00:40:56;100941.41;;;23.24;54.77
4834;BME280;12895;51.064;7.028;2023-07-09T00:43:42;100923.03;;;23.30;54.51
4834;BME280;12895;51.064;7.028;2023-07-09T00:49:59;100934.44;;;23.17;56.52
4834;BME280;12895;51.064;7.028;2023-07-09T00:52:51;100925.13;;;23.02;56.24
4834;BME280;12895;51.064;7.028;2023-07-09T00:55:42;100932.69;;;23.07;56.14
4834;BME280;12895;51.064;7.028;2023-07-09T00:58:29;100927.41;;;23.03;56.35
4834;BME280;12895;51.064;7.028;2023-07-09T01:01:18;100921.34;;;22.99;56.20
4834;BME280;12895;51.064;7.028;2023-07-09T01:04:03;100922.66;;;22.98;56.41
4834;BME280;12895;51.064;7.028;2023-07-09T01:06:51;100920.63;;;23.06;56.02
4834;BME280;12895;51.064;7.028;2023-07-09T01:09:39;100926.69;;;23.10;56.38
4834;BME280;12895;51.064;7.028;2023-07-09T01:12:27;100931.16;;;23.06;56.33
4834;BME280;12895;51.064;7.028;2023-07-09T01:15:16;100928.34;;;23.06;55.78
4834;BME280;12895;51.064;7.028;2023-07-09T01:18:01;100934.91;;;23.08;56.93
4834;BME280;12895;51.064;7.028;2023-07-09T01:20:47;100926.97;;;22.99;57.28
4834;BME280;12895;51.064;7.028;2023-07-09T01:23:34;100924.75;;;22.98;56.53
4834;BME280;12895;51.064;7.028;2023-07-09T01:26:22;100922.47;;;22.96;56.96
4834;BME280;12895;51.064;7.028;2023-07-09T01:29:09;100921.72;;;22.96;57.09
4834;BME280;12895;51.064;7.028;2023-07-09T01:31:55;100926.59;;;22.95;56.77
4834;BME280;12895;51.064;7.028;2023-07-09T01:34:42;100930.22;;;23.03;56.28
4834;BME280;12895;51.064;7.028;2023-07-09T01:37:27;100929.59;;;22.97;56.75
4834;BME280;12895;51.064;7.028;2023-07-09T01:40:16;100928.09;;;22.96;56.22
4834;BME280;12895;51.064;7.028;2023-07-09T01:43:03;100929.22;;;22.93;57.27
4834;BME280;12895;51.064;7.028;2023-07-09T01:45:51;100923.16;;;22.89;57.63
4834;BME280;12895;51.064;7.028;2023-07-09T01:48:38;100926.88;;;22.77;57.87
4834;BME280;12895;51.064;7.028;2023-07-09T01:51:27;100928.97;;;22.84;57.53
4834;BME280;12895;51.064;7.028;2023-07-09T01:54:12;100931.03;;;22.83;57.92
4834;BME280;12895;51.064;7.028;2023-07-09T01:57:15;100933.06;;;22.75;58.17
4834;BME280;12895;51.064;7.028;2023-07-09T02:00:04;100930.56;;;22.65;58.60
4834;BME280;12895;51.064;7.028;2023-07-09T02:02:57;100934.38;;;22.74;58.51
4834;BME280;12895;51.064;7.028;2023-07-09T02:05:44;100942.94;;;22.62;58.91
4834;BME280;12895;51.064;7.028;2023-07-09T02:08:30;100932.72;;;22.51;59.62
4834;BME280;12895;51.064;7.028;2023-07-09T02:11:16;100938.03;;;22.62;58.87
4834;BME280;12895;51.064;7.028;2023-07-09T02:14:05;100942.53;;;22.58;58.99
4834;BME280;12895;51.064;7.028;2023-07-09T02:16:50;100938.00;;;22.55;59.40
4834;BME280;12895;51.064;7.028;2023-07-09T02:19:36;100940.53;;;22.45;59.69
4834;BME280;12895;51.064;7.028;2023-07-09T02:22:22;100942.13;;;22.54;58.65
4834;BME280;12895;51.064;7.028;2023-07-09T02:25:08;100945.31;;;22.37;59.40
4834;BME280;12895;51.064;7.028;2023-07-09T02:27:53;100946.78;;;22.31;60.25
4834;BME280;12895;51.064;7.028;2023-07-09T02:30:40;100930.94;;;22.20;60.55
4834;BME280;12895;51.064;7.028;2023-07-09T02:33:26;100934.50;;;22.21;60.65
4834;BME280;12895;51.064;7.028;2023-07-09T02:36:11;100951.97;;;22.19;60.52
4834;BME280;12895;51.064;7.028;2023-07-09T02:38:56;100956.00;;;22.11;60.63
4834;BME280;12895;51.064;7.028;2023-07-09T02:41:42;100959.16;;;22.28;59.49
4834;BME280;12895;51.064;7.028;2023-07-09T02:44:28;100953.03;;;22.16;60.37
4834;BME280;12895;51.064;7.028;2023-07-09T02:47:15;100955.66;;;22.14;60.82
4834;BME280;12895;51.064;7.028;2023-07-09T02:50:00;100957.22;;;22.23;60.53
4834;BME280;12895;51.064;7.028;2023-07-09T02:52:45;100947.34;;;22.09;60.28
4834;BME280;12895;51.064;7.028;2023-07-09T02:55:31;100952.66;;;22.12;61.22
4834;BME280;12895;51.064;7.028;2023-07-09T02:58:18;100951.06;;;22.04;61.30
4834;BME280;12895;51.064;7.028;2023-07-09T03:01:03;100947.56;;;22.11;61.26
4834;BME280;12895;51.064;7.028;2023-07-09T03:03:51;100950.31;;;22.03;60.84
4834;BME280;12895;51.064;7.028;2023-07-09T03:06:37;100958.22;;;22.05;60.92
4834;BME280;12895;51.064;7.028;2023-07-09T03:09:23;100949.13;;;21.99;60.73
4834;BME280;12895;51.064;7.028;2023-07-09T03:12:09;100960.72;;;21.95;61.14
4834;BME280;12895;51.064;7.028;2023-07-09T03:14:55;100954.75;;;21.99;60.65
4834;BME280;12895;51.064;7.028;2023-07-09T03:17:41;100955.44;;;21.92;60.76
4834;BME280;12895;51.064;7.028;2023-07-09T03:20:28;100963.84;;;22.05;61.55
4834;BME280;12895;51.064;7.028;2023-07-09T03:23:13;100963.69;;;21.90;61.21
4834;BME280;12895;51.064;7.028;2023-07-09T03:25:59;100971.38;;;21.89;61.32
4834;BME280;12895;51.064;7.028;2023-07-09T03:28:44;100964.78;;;21.87;61.20
4834;BME280;12895;51.064;7.028;2023-07-09T03:31:30;100976.72;;;21.80;61.63
4834;BME280;12895;51.064;7.028;2023-07-09T03:34:19;100974.09;;;21.82;61.83
4834;BME280;12895;51.064;7.028;2023-07-09T03:37:06;100979.72;;;21.82;61.19
4834;BME280;12895;51.064;7.028;2023-07-09T03:39:51;100989.69;;;21.83;62.02
4834;BME280;12895;51.064;7.028;2023-07-09T03:42:36;100984.47;;;21.87;62.22
4834;BME280;12895;51.064;7.028;2023-07-09T03:45:21;100983.69;;;21.99;61.24
4834;BME280;12895;51.064;7.028;2023-07-09T03:48:08;100979.91;;;21.97;60.84
4834;BME280;12895;51.064;7.028;2023-07-09T03:50:53;100989.22;;;21.92;61.70
4834;BME280;12895;51.064;7.028;2023-07-09T03:53:39;100991.41;;;21.86;61.00
4834;BME280;12895;51.064;7.028;2023-07-09T03:56:24;100994.84;;;21.92;61.34
4834;BME280;12895;51.064;7.028;2023-07-09T03:59:09;100995.28;;;21.96;59.99
4834;BME280;12895;51.064;7.028;2023-07-09T04:01:55;100990.66;;;21.85;62.26
4834;BME280;12895;51.064;7.028;2023-07-09T04:04:40;100990.25;;;21.81;62.57
4834;BME280;12895;51.064;7.028;2023-07-09T04:07:25;100994.38;;;21.80;61.11
4834;BME280;12895;51.064;7.028;2023-07-09T04:10:13;100994.84;;;21.92;61.96
4834;BME280;12895;51.064;7.028;2023-07-09T04:12:59;100992.03;;;21.92;60.95
4834;BME280;12895;51.064;7.028;2023-07-09T04:15:44;100997.84;;;21.94;60.34
4834;BME280;12895;51.064;7.028;2023-07-09T04:18:30;101000.44;;;22.05;61.16
4834;BME280;12895;51.064;7.028;2023-07-09T04:21:16;100997.19;;;22.01;61.50
4834;BME280;12895;51.064;7.028;2023-07-09T04:24:01;101004.28;;;22.15;60.76
4834;BME280;12895;51.064;7.028;2023-07-09T04:26:47;101002.06;;;22.21;61.13
4834;BME280;12895;51.064;7.028;2023-07-09T04:29:33;101004.50;;;22.17;61.53
4834;BME280;12895;51.064;7.028;2023-07-09T04:32:19;100999.59;;;22.17;61.68
4834;BME280;12895;51.064;7.028;2023-07-09T04:35:05;101006.41;;;22.22;61.42
4834;BME280;12895;51.064;7.028;2023-07-09T04:37:51;101012.59;;;22.20;61.23
4834;BME280;12895;51.064;7.028;2023-07-09T04:40:36;101006.41;;;22.22;61.12
4834;BME280;12895;51.064;7.028;2023-07-09T04:43:23;101005.09;;;22.23;60.60
4834;BME280;12895;51.064;7.028;2023-07-09T04:46:08;101004.63;;;22.32;60.91
4834;BME280;12895;51.064;7.028;2023-07-09T04:48:53;101004.22;;;22.28;61.02
4834;BME280;12895;51.064;7.028;2023-07-09T04:51:39;101001.66;;;22.37;61.10
4834;BME280;12895;51.064;7.028;2023-07-09T04:54:25;101006.75;;;22.39;61.04
4834;BME280;12895;51.064;7.028;2023-07-09T04:57:11;101009.31;;;22.50;60.96
4834;BME280;12895;51.064;7.028;2023-07-09T04:59:58;100995.66;;;22.54;61.22
4834;BME280;12895;51.064;7.028;2023-07-09T05:02:43;101004.50;;;22.58;61.06
4834;BME280;12895;51.064;7.028;2023-07-09T05:05:29;100995.91;;;22.63;61.17
4834;BME280;12895;51.064;7.028;2023-07-09T05:08:14;100996.47;;;22.62;61.20
4834;BME280;12895;51.064;7.028;2023-07-09T05:11:00;100999.69;;;22.66;60.27
4834;BME280;12895;51.064;7.028;2023-07-09T05:13:46;100998.66;;;22.76;60.04
4834;BME280;12895;51.064;7.028;2023-07-09T05:16:33;100997.56;;;22.86;60.08
4834;BME280;12895;51.064;7.028;2023-07-09T05:19:19;100988.63;;;22.95;59.34
4834;BME280;12895;51.064;7.028;2023-07-09T05:22:04;101004.41;;;22.98;60.22
4834;BME280;12895;51.064;7.028;2023-07-09T05:24:50;101000.69;;;23.03;60.28
4834;BME280;12895;51.064;7.028;2023-07-09T05:27:35;101000.41;;;23.14;60.30
4834;BME280;12895;51.064;7.028;2023-07-09T05:30:20;101004.94;;;23.17;60.66
4834;BME280;12895;51.064;7.028;2023-07-09T05:33:07;101003.41;;;23.16;60.89
4834;BME280;12895;51.064;7.028;2023-07-09T05:35:53;100999.69;;;23.21;60.33
4834;BME280;12895;51.064;7.028;2023-07-09T05:38:38;101000.88;;;23.33;60.23
4834;BME280;12895;51.064;7.028;2023-07-09T05:41:24;100999.75;;;23.36;61.19
4834;BME280;12895;51.064;7.028;2023-07-09T05:44:09;100997.53;;;23.42;59.24
4834;BME280;12895;51.064;7.028;2023-07-09T05:46:55;101003.22;;;23.57;59.12
4834;BME280;12895;51.064;7.028;2023-07-09T05:49:42;100989.53;;;23.61;59.24
4834;BME280;12895;51.064;7.028;2023-07-09T05:52:28;100990.16;;;23.82;58.40
4834;BME280;12895;51.064;7.028;2023-07-09T05:55:13;101000.56;;;23.95;57.70
4834;BME280;12895;51.064;7.028;2023-07-09T05:57:59;100996.44;;;23.96;58.09
4834;BME280;12895;51.064;7.028;2023-07-09T06:00:44;100991.75;;;24.06;58.46
4834;BME280;12895;51.064;7.028;2023-07-09T06:03:30;100985.72;;;24.09;57.27
4834;BME280;12895;51.064;7.028;2023-07-09T06:06:18;100991.38;;;24.24;57.61
4834;BME280;12895;51.064;7.028;2023-07-09T06:09:04;100993.47;;;24.31;58.15
4834;BME280;12895;51.064;7.028;2023-07-09T06:11:50;100997.41;;;24.43;57.56
4834;BME280;12895;51.064;7.028;2023-07-09T06:14:37;100993.66;;;24.48;57.07
4834;BME280;12895;51.064;7.028;2023-07-09T06:17:23;101000.28;;;24.58;57.59
4834;BME280;12895;51.064;7.028;2023-07-09T06:20:09;100996.72;;;24.65;57.03
4834;BME280;12895;51.064;7.028;2023-07-09T06:22:56;100986.09;;;24.88;56.17
4834;BME280;12895;51.064;7.028;2023-07-09T06:25:42;100989.47;;;25.02;55.94
4834;BME280;12895;51.064;7.028;2023-07-09T06:28:28;100995.13;;;25.02;55.63
4834;BME280;12895;51.064;7.028;2023-07-09T06:31:13;100999.63;;;25.12;54.48
4834;BME280;12895;51.064;7.028;2023-07-09T06:33:59;100996.41;;;25.16;54.12
4834;BME280;12895;51.064;7.028;2023-07-09T06:36:44;100995.84;;;25.25;54.70
4834;BME280;12895;51.064;7.028;2023-07-09T06:39:33;100988.13;;;25.25;54.25
4834;BME280;12895;51.064;7.028;2023-07-09T06:42:18;100995.84;;;25.32;53.57
4834;BME280;12895;51.064;7.028;2023-07-09T06:45:18;100999.91;;;25.46;53.43
4834;BME280;12895;51.064;7.028;2023-07-09T06:48:04;101001.38;;;25.62;52.86
4834;BME280;12895;51.064;7.028;2023-07-09T06:50:52;101012.09;;;25.71;53.82
4834;BME280;12895;51.064;7.028;2023-07-09T06:53:37;100999.78;;;25.76;52.95
4834;BME280;12895;51.064;7.028;2023-07-09T06:56:26;101005.41;;;25.91;52.84
4834;BME280;12895;51.064;7.028;2023-07-09T06:59:12;101006.91;;;25.92;53.10
4834;BME280;12895;51.064;7.028;2023-07-09T07:01:57;100993.78;;;26.04;52.11
4834;BME280;12895;51.064;7.028;2023-07-09T07:04:43;100999.00;;;26.15;51.74
4834;BME280;12895;51.064;7.028;2023-07-09T07:07:28;100990.09;;;26.18;52.43
4834;BME280;12895;51.064;7.028;2023-07-09T07:10:13;101003.25;;;26.31;51.72
4834;BME280;12895;51.064;7.028;2023-07-09T07:13:00;101002.78;;;26.42;51.41
4834;BME280;12895;51.064;7.028;2023-07-09T07:15:48;101003.09;;;26.46;50.93
4834;BME280;12895;51.064;7.028;2023-07-09T07:18:34;100997.03;;;26.57;50.76
4834;BME280;12895;51.064;7.028;2023-07-09T07:21:20;100993.50;;;26.66;50.74
4834;BME280;12895;51.064;7.028;2023-07-09T07:24:05;100999.19;;;26.66;50.56
4834;BME280;12895;51.064;7.028;2023-07-09T07:26:51;100993.06;;;26.77;50.30
4834;BME280;12895;51.064;7.028;2023-07-09T07:29:37;100989.88;;;26.90;49.79
4834;BME280;12895;51.064;7.028;2023-07-09T07:32:22;100988.31;;;26.96;49.78
4834;BME280;12895;51.064;7.028;2023-07-09T07:35:08;100992.75;;;27.07;50.58
4834;BME280;12895;51.064;7.028;2023-07-09T07:37:53;100991.19;;;27.13;50.43
4834;BME280;12895;51.064;7.028;2023-07-09T07:40:39;100989.59;;;27.20;50.00
4834;BME280;12895;51.064;7.028;2023-07-09T07:43:29;100992.59;;;27.22;49.75
4834;BME280;12895;51.064;7.028;2023-07-09T07:46:15;100997.13;;;27.25;50.04
4834;BME280;12895;51.064;7.028;2023-07-09T07:49:01;100989.91;;;27.24;50.03
4834;BME280;12895;51.064;7.028;2023-07-09T07:51:46;100997.28;;;27.27;49.67
4834;BME280;12895;51.064;7.028;2023-07-09T07:54:32;100987.91;;;27.34;49.59
4834;BME280;12895;51.064;7.028;2023-07-09T07:57:17;100985.25;;;27.36;50.19
4834;BME280;12895;51.064;7.028;2023-07-09T08:00:03;100990.06;;;27.43;49.94
4834;BME280;12895;51.064;7.028;2023-07-09T08:02:57;100984.03;;;27.56;50.02
4834;BME280;12895;51.064;7.028;2023-07-09T08:05:47;100989.34;;;27.69;50.37
4834;BME280;12895;51.064;7.028;2023-07-09T08:08:33;100991.84;;;27.82;48.94
4834;BME280;12895;51.064;7.028;2023-07-09T08:11:18;100991.84;;;27.82;49.80
4834;BME280;12895;51.064;7.028;2023-07-09T08:14:04;100984.56;;;27.88;48.14
4834;BME280;12895;51.064;7.028;2023-07-09T08:16:50;100983.75;;;28.05;49.09
4834;BME280;12895;51.064;7.028;2023-07-09T08:19:45;100991.72;;;28.16;48.66
4834;BME280;12895;51.064;7.028;2023-07-09T08:22:32;100991.72;;;28.16;48.20
4834;BME280;12895;51.064;7.028;2023-07-09T08:25:17;100982.78;;;28.29;47.99
4834;BME280;12895;51.064;7.028;2023-07-09T08:28:02;100981.97;;;28.36;48.64
4834;BME280;12895;51.064;7.028;2023-07-09T08:30:47;100972.22;;;28.39;48.35
4834;BME280;12895;51.064;7.028;2023-07-09T08:33:33;100965.69;;;28.46;48.04
4834;BME280;12895;51.064;7.028;2023-07-09T08:36:20;100967.94;;;28.57;48.44
4834;BME280;12895;51.064;7.028;2023-07-09T08:39:05;100965.88;;;28.67;47.72
4834;BME280;12895;51.064;7.028;2023-07-09T08:41:54;100965.56;;;28.63;47.46
4834;BME280;12895;51.064;7.028;2023-07-09T08:45:03;100966.50;;;28.75;47.43
4834;BME280;12895;51.064;7.028;2023-07-09T08:48:03;100956.59;;;28.76;48.05
4834;BME280;12895;51.064;7.028;2023-07-09T08:50:54;100966.22;;;28.90;46.96
4834;BME280;12895;51.064;7.028;2023-07-09T08:53:45;100959.50;;;28.95;47.43
4834;BME280;12895;51.064;7.028;2023-07-09T08:56:33;100953.84;;;29.04;46.97
4834;BME280;12895;51.064;7.028;2023-07-09T08:59:19;100958.31;;;29.07;46.17
4834;BME280;12895;51.064;7.028;2023-07-09T09:02:14;100957.09;;;29.10;46.24
4834;BME280;12895;51.064;7.028;2023-07-09T09:05:03;100956.38;;;29.28;46.54
4834;BME280;12895;51.064;7.028;2023-07-09T09:07:56;100962.19;;;29.40;46.43
4834;BME280;12895;51.064;7.028;2023-07-09T09:10:47;100952.59;;;29.54;45.83
4834;BME280;12895;51.064;7.028;2023-07-09T09:13:33;100951.69;;;29.61;45.68
4834;BME280;12895;51.064;7.028;2023-07-09T09:16:25;100956.03;;;29.62;45.03
4834;BME280;12895;51.064;7.028;2023-07-09T09:19:23;100952.13;;;29.67;45.19
4834;BME280;12895;51.064;7.028;2023-07-09T09:22:15;100950.00;;;29.77;44.16
4834;BME280;12895;51.064;7.028;2023-07-09T09:25:10;100950.84;;;29.89;44.79
4834;BME280;12895;51.064;7.028;2023-07-09T09:28:00;100938.53;;;29.96;43.62
4834;BME280;12895;51.064;7.028;2023-07-09T09:30:45;100940.44;;;30.13;43.69
4834;BME280;12895;51.064;7.028;2023-07-09T09:33:37;100945.38;;;30.12;42.74
4834;BME280;12895;51.064;7.028;2023-07-09T09:36:26;100952.88;;;30.17;43.45
4834;BME280;12895;51.064;7.028;2023-07-09T09:39:12;100941.47;;;30.17;43.19
4834;BME280;12895;51.064;7.028;2023-07-09T09:41:58;100939.78;;;30.24;42.66
4834;BME280;12895;51.064;7.028;2023-07-09T09:44:46;100947.75;;;30.25;42.11
4834;BME280;12895;51.064;7.028;2023-07-09T09:47:31;100951.69;;;30.41;42.24
4834;BME280;12895;51.064;7.028;2023-07-09T09:50:19;100948.94;;;30.53;41.55
4834;BME280;12895;51.064;7.028;2023-07-09T09:53:07;100949.69;;;30.53;41.60
4834;BME280;12895;51.064;7.028;2023-07-09T09:55:53;100948.31;;;30.54;41.76
4834;BME280;12895;51.064;7.028;2023-07-09T09:58:40;100946.44;;;30.68;41.69
4834;BME280;12895;51.064;7.028;2023-07-09T10:01:29;100941.28;;;30.76;41.77
4834;BME280;12895;51.064;7.028;2023-07-09T10:04:17;100941.03;;;30.93;41.16
4834;BME280;12895;51.064;7.028;2023-07-09T10:07:07;100935.97;;;31.03;41.02
4834;BME280;12895;51.064;7.028;2023-07-09T10:09:54;100936.34;;;31.09;40.59
4834;BME280;12895;51.064;7.028;2023-07-09T10:12:44;100933.66;;;31.11;40.19
4834;BME280;12895;51.064;7.028;2023-07-09T10:15:38;100933.22;;;31.26;40.38
4834;BME280;12895;51.064;7.028;2023-07-09T10:18:34;100928.06;;;31.34;41.23
4834;BME280;12895;51.064;7.028;2023-07-09T10:21:28;100914.28;;;31.42;39.57
4834;BME280;12895;51.064;7.028;2023-07-09T10:24:29;100910.47;;;31.49;39.71
4834;BME280;12895;51.064;7.028;2023-07-09T10:27:24;100918.88;;;31.47;39.50
4834;BME280;12895;51.064;7.028;2023-07-09T10:30:22;100916.41;;;31.53;39.45
4834;BME280;12895;51.064;7.028;2023-07-09T10:33:15;100908.69;;;31.44;39.26
4834;BME280;12895;51.064;7.028;2023-07-09T10:36:12;100896.19;;;31.61;39.00
4834;BME280;12895;51.064;7.028;2023-07-09T10:39:06;100920.97;;;31.79;39.04
4834;BME280;12895;51.064;7.028;2023-07-09T10:41:57;100914.78;;;31.83;38.07
4834;BME280;12895;51.064;7.028;2023-07-09T10:44:48;100914.88;;;31.85;38.30
4834;BME280;12895;51.064;7.028;2023-07-09T10:47:41;100922.59;;;32.05;39.19
4834;BME280;12895;51.064;7.028;2023-07-09T10:50:32;100916.75;;;32.15;37.56
4834;BME280;12895;51.064;7.028;2023-07-09T10:53:28;100911.91;;;32.17;38.01
4834;BME280;12895;51.064;7.028;2023-07-09T10:56:17;100914.53;;;32.25;37.81
4834;BME280;12895;51.064;7.028;2023-07-09T10:59:19;100912.28;;;32.46;37.73
4834;BME280;12895;51.064;7.028;2023-07-09T11:02:18;100909.25;;;32.55;38.76
4834;BME280;12895;51.064;7.028;2023-07-09T11:05:07;100905.00;;;32.68;36.07
4834;BME280;12895;51.064;7.028;2023-07-09T11:07:58;100901.22;;;32.88;36.67
4834;BME280;12895;51.064;7.028;2023-07-09T11:10:51;100889.50;;;32.96;34.95
4834;BME280;12895;51.064;7.028;2023-07-09T11:13:41;100892.13;;;33.17;34.12
4834;BME280;12895;51.064;7.028;2023-07-09T11:16:32;100893.13;;;33.21;36.17
4834;BME280;12895;51.064;7.028;2023-07-09T11:19:20;100881.38;;;33.29;34.00
4834;BME280;12895;51.064;7.028;2023-07-09T11:22:15;100880.34;;;33.36;35.27
4834;BME280;12895;51.064;7.028;2023-07-09T11:25:08;100869.41;;;33.71;35.10
4834;BME280;12895;51.064;7.028;2023-07-09T11:28:03;100853.31;;;33.91;34.83
4834;BME280;12895;51.064;7.028;2023-07-09T11:30:50;100851.38;;;34.09;35.08
4834;BME280;12895;51.064;7.028;2023-07-09T11:33:45;100851.81;;;34.17;33.78
4834;BME280;12895;51.064;7.028;2023-07-09T11:36:34;100849.69;;;34.31;33.66
4834;BME280;12895;51.064;7.028;2023-07-09T11:39:22;100837.69;;;34.34;32.98
4834;BME280;12895;51.064;7.028;2023-07-09T11:45:48;100838.78;;;34.70;30.87
4834;BME280;12895;51.064;7.028;2023-07-09T11:48:43;100842.94;;;34.96;32.41
4834;BME280;12895;51.064;7.028;2023-07-09T11:51:34;100839.66;;;35.17;32.60
4834;BME280;12895;51.064;7.028;2023-07-09T11:54:23;100852.69;;;35.33;31.38
4834;BME280;12895;51.064;7.028;2023-07-09T11:57:11;100847.97;;;35.40;31.22
4834;BME280;12895;51.064;7.028;2023-07-09T11:59:59;100847.69;;;35.34;30.80
4834;BME280;12895;51.064;7.028;2023-07-09T12:02:46;100843.78;;;35.58;31.30
4834;BME280;12895;51.064;7.028;2023-07-09T12:05:32;100837.88;;;35.54;31.87
4834;BME280;12895;51.064;7.028;2023-07-09T12:08:18;100847.25;;;35.55;32.01
4834;BME280;12895;51.064;7.028;2023-07-09T12:11:18;100851.03;;;35.44;31.64
4834;BME280;12895;51.064;7.028;2023-07-09T12:14:05;100860.22;;;35.56;31.34
4834;BME280;12895;51.064;7.028;2023-07-09T12:16:54;100848.28;;;35.46;30.81
4834;BME280;12895;51.064;7.028;2023-07-09T12:19:40;100849.94;;;35.51;30.94
4834;BME280;12895;51.064;7.028;2023-07-09T12:22:26;100837.41;;;35.44;31.52
4834;BME280;12895;51.064;7.028;2023-07-09T12:25:20;100841.59;;;35.57;30.75
4834;BME280;12895;51.064;7.028;2023-07-09T12:28:13;100839.81;;;35.50;32.01
4834;BME280;12895;51.064;7.028;2023-07-09T12:30:59;100821.16;;;35.51;31.25
4834;BME280;12895;51.064;7.028;2023-07-09T12:33:49;100807.34;;;35.32;30.82
4834;BME280;12895;51.064;7.028;2023-07-09T12:36:41;100797.56;;;35.08;31.31
4834;BME280;12895;51.064;7.028;2023-07-09T12:39:31;100806.63;;;34.87;32.80
4834;BME280;12895;51.064;7.028;2023-07-09T12:42:19;100806.00;;;34.75;32.97
4834;BME280;12895;51.064;7.028;2023-07-09T12:45:09;100792.06;;;34.69;31.88
4834;BME280;12895;51.064;7.028;2023-07-09T12:47:59;100787.78;;;34.84;31.45
4834;BME280;12895;51.064;7.028;2023-07-09T12:50:49;100792.63;;;34.66;32.51
4834;BME280;12895;51.064;7.028;2023-07-09T12:53:39;100799.47;;;34.59;33.11
4834;BME280;12895;51.064;7.028;2023-07-09T12:56:24;100788.06;;;34.32;32.34
4834;BME280;12895;51.064;7.028;2023-07-09T12:59:16;100798.56;;;34.14;33.07
4834;BME280;12895;51.064;7.028;2023-07-09T13:02:13;100785.22;;;33.78;34.37
4834;BME280;12895;51.064;7.028;2023-07-09T13:05:00;100781.88;;;33.70;33.27
4834;BME280;12895;51.064;7.028;2023-07-09T13:07:50;100780.66;;;33.73;34.08
4834;BME280;12895;51.064;7.028;2023-07-09T13:10:40;100784.78;;;33.56;33.83
4834;BME280;12895;51.064;7.028;2023-07-09T13:13:26;100785.91;;;33.38;35.06
4834;BME280;12895;51.064;7.028;2023-07-09T13:16:13;100779.97;;;33.34;35.89
4834;BME280;12895;51.064;7.028;2023-07-09T13:18:58;100776.56;;;32.74;37.13
4834;BME280;12895;51.064;7.028;2023-07-09T13:21:45;100771.13;;;32.30;38.80
4834;BME280;12895;51.064;7.028;2023-07-09T13:24:32;100768.56;;;32.23;39.02
4834;BME280;12895;51.064;7.028;2023-07-09T13:27:19;100763.59;;;32.12;40.89
4834;BME280;12895;51.064;7.028;2023-07-09T13:30:07;100761.84;;;32.07;39.71
4834;BME280;12895;51.064;7.028;2023-07-09T13:32:53;100756.91;;;31.96;38.60
4834;BME280;12895;51.064;7.028;2023-07-09T13:35:38;100766.84;;;31.83;39.14
4834;BME280;12895;51.064;7.028;2023-07-09T13:38:25;100754.69;;;31.71;39.43
4834;BME280;12895;51.064;7.028;2023-07-09T13:41:11;100751.44;;;31.65;38.84
4834;BME280;12895;51.064;7.028;2023-07-09T13:44:00;100748.94;;;31.48;39.43
4834;BME280;12895;51.064;7.028;2023-07-09T13:46:45;100746.84;;;31.37;40.90
4834;BME280;12895;51.064;7.028;2023-07-09T13:49:31;100742.00;;;31.28;39.43
4834;BME280;12895;51.064;7.028;2023-07-09T13:52:18;100741.25;;;31.16;40.82
4834;BME280;12895;51.064;7.028;2023-07-09T13:55:05;100728.41;;;30.94;45.24
4834;BME280;12895;51.064;7.028;2023-07-09T13:57:50;100716.44;;;30.63;45.79
4834;BME280;12895;51.064;7.028;2023-07-09T14:00:39;100722.44;;;30.46;44.97
4834;BME280;12895;51.064;7.028;2023-07-09T14:03:28;100738.75;;;30.34;47.46
4834;BME280;12895;51.064;7.028;2023-07-09T14:06:17;100751.03;;;30.16;53.88
4834;BME280;12895;51.064;7.028;2023-07-09T14:09:02;100749.06;;;29.76;59.35
4834;BME280;12895;51.064;7.028;2023-07-09T14:11:50;100765.97;;;28.00;62.97
4834;BME280;12895;51.064;7.028;2023-07-09T14:14:36;100836.47;;;26.61;74.44
4834;BME280;12895;51.064;7.028;2023-07-09T14:17:25;100839.97;;;25.94;68.14
4834;BME280;12895;51.064;7.028;2023-07-09T14:20:11;100835.16;;;25.55;66.27
4834;BME280;12895;51.064;7.028;2023-07-09T14:22:57;100855.31;;;24.80;78.61
4834;BME280;12895;51.064;7.028;2023-07-09T14:25:43;100874.25;;;24.55;83.09
4834;BME280;12895;51.064;7.028;2023-07-09T14:28:30;100868.13;;;24.81;79.82
4834;BME280;12895;51.064;7.028;2023-07-09T14:31:20;100870.00;;;24.86;76.84
4834;BME280;12895;51.064;7.028;2023-07-09T14:34:19;100866.13;;;24.59;79.35
4834;BME280;12895;51.064;7.028;2023-07-09T14:37:07;100878.38;;;24.54;80.82
4834;BME280;12895;51.064;7.028;2023-07-09T14:39:53;100935.47;;;24.60;76.19
4834;BME280;12895;51.064;7.028;2023-07-09T14:42:43;100993.47;;;24.46;75.44
4834;BME280;12895;51.064;7.028;2023-07-09T14:45:29;101035.16;;;24.61;72.55
4834;BME280;12895;51.064;7.028;2023-07-09T14:48:18;101108.41;;;24.59;68.84
4834;BME280;12895;51.064;7.028;2023-07-09T14:51:12;101128.59;;;24.55;66.12
4834;BME280;12895;51.064;7.028;2023-07-09T14:53:59;101097.63;;;24.42;67.14
4834;BME280;12895;51.064;7.028;2023-07-09T14:56:44;101049.78;;;24.29;67.86